Time;durP1;ratioP1;P1;durP2;ratioP2;P2;SDS_P1;SDS_P2;PMS_P1;PMS_P2;Temp;Humidity;BMP_temperature;BMP_pressure;BME280_temperature;BME280_humidity;BME280_pressure;Samples;Min_cycle;Max_cycle;Signal;HPM_P1;HPM_P2
2023/05/15 00:00:02;;;;;;;3.17;2.77;;;10.20;99.90;;;;;;4937655;28;21510;-84
2023/05/15 00:02:28;;;;;;;2.83;2.28;;;10.20;99.90;;;;;;4944556;28;20211;-83
2023/05/15 00:04:54;;;;;;;5.13;2.83;;;10.30;99.90;;;;;;4947160;28;20215;-80
2023/05/15 00:07:19;;;;;;;3.23;2.43;;;10.30;99.90;;;;;;4950132;28;20453;-80
2023/05/15 00:09:45;;;;;;;4.10;2.90;;;10.30;99.90;;;;;;4947493;28;21148;-83
2023/05/15 00:12:10;;;;;;;3.27;2.30;;;10.30;99.90;;;;;;4933002;28;20196;-86
2023/05/15 00:14:36;;;;;;;5.20;2.30;;;10.30;99.90;;;;;;4935556;28;20235;-85
2023/05/15 00:17:01;;;;;;;5.57;2.73;;;10.30;99.90;;;;;;4933794;28;20214;-85
2023/05/15 00:19:27;;;;;;;4.43;2.60;;;10.40;99.90;;;;;;4954948;28;20227;-86
2023/05/15 00:21:54;;;;;;;3.90;2.60;;;10.40;99.90;;;;;;4937638;28;20212;-85
2023/05/15 00:24:20;;;;;;;5.00;2.67;;;10.40;99.90;;;;;;4930382;28;20338;-85
2023/05/15 00:26:46;;;;;;;3.63;2.45;;;10.40;99.90;;;;;;4915719;28;20275;-82
2023/05/15 00:29:11;;;;;;;4.10;2.33;;;10.80;99.90;;;;;;4944201;28;20199;-85
2023/05/15 00:31:37;;;;;;;3.63;2.10;;;10.40;99.90;;;;;;4940600;28;22075;-82
2023/05/15 00:34:02;;;;;;;3.10;2.30;;;10.30;99.90;;;;;;4934394;28;20207;-83
2023/05/15 00:36:28;;;;;;;2.17;1.87;;;10.30;99.90;;;;;;4935946;28;20260;-83
2023/05/15 00:38:54;;;;;;;2.70;2.07;;;10.20;99.90;;;;;;4950955;28;20184;-84
2023/05/15 00:41:21;;;;;;;5.60;3.53;;;10.10;99.90;;;;;;4937271;28;20254;-83
2023/05/15 00:43:50;;;;;;;4.05;2.20;;;10.00;99.90;;;;;;4952780;28;20221;-83
2023/05/15 00:46:15;;;;;;;4.05;2.80;;;9.80;99.90;;;;;;4945038;28;20192;-85
2023/05/15 00:48:43;;;;;;;3.70;2.20;;;9.90;99.90;;;;;;4956702;28;20208;-82
2023/05/15 00:51:08;;;;;;;4.80;3.05;;;9.70;99.90;;;;;;4950807;28;20821;-84
2023/05/15 00:53:34;;;;;;;6.60;2.83;;;9.70;99.90;;;;;;4947787;28;20226;-84
2023/05/15 00:56:02;;;;;;;5.90;3.37;;;9.70;99.90;;;;;;4948099;28;20443;-83
2023/05/15 00:58:29;;;;;;;3.40;2.28;;;9.80;99.90;;;;;;4951600;28;20444;-85
2023/05/15 01:00:55;;;;;;;3.85;2.83;;;9.80;99.90;;;;;;4949981;28;20205;-84
2023/05/15 01:03:22;;;;;;;3.75;2.30;;;9.80;99.90;;;;;;4931110;28;20199;-83
2023/05/15 01:05:47;;;;;;;3.55;2.17;;;9.90;99.90;;;;;;4956735;28;20188;-87
2023/05/15 01:08:25;;;;;;;2.93;1.80;;;10.00;99.90;;;;;;4944492;28;20192;-87
2023/05/15 01:10:54;;;;;;;5.93;3.08;;;10.10;99.90;;;;;;4946469;28;20207;-88
2023/05/15 01:13:21;;;;;;;3.53;2.20;;;10.20;99.90;;;;;;4944236;28;20209;-88
2023/05/15 01:15:48;;;;;;;6.10;3.00;;;10.20;99.90;;;;;;4955927;28;20196;-87
2023/05/15 01:18:14;;;;;;;3.72;2.70;;;;;;;;;;4942766;28;20191;-88
2023/05/15 01:21:06;;;;;;;2.53;2.17;;;10.40;99.90;;;;;;4953862;28;20215;-88
2023/05/15 01:24:00;;;;;;;2.88;2.58;;;10.40;99.90;;;;;;4939873;28;20207;-87
2023/05/15 01:26:57;;;;;;;5.93;3.25;;;10.40;99.90;;;;;;4945094;28;20295;-87
2023/05/15 01:29:25;;;;;;;3.95;2.80;;;10.60;99.90;;;;;;4937230;28;20188;-86
2023/05/15 01:32:00;;;;;;;9.93;3.90;;;10.60;99.90;;;;;;4945317;28;20185;-84
2023/05/15 01:34:35;;;;;;;4.93;2.78;;;10.70;99.90;;;;;;4948504;28;20211;-83
2023/05/15 01:37:03;;;;;;;7.35;2.83;;;10.80;99.90;;;;;;4943129;28;20275;-83
2023/05/15 01:39:33;;;;;;;4.75;3.05;;;10.90;99.90;;;;;;4932265;28;20255;-84
2023/05/15 01:42:04;;;;;;;4.30;2.38;;;10.90;99.90;;;;;;4946831;28;20283;-84
2023/05/15 01:44:33;;;;;;;6.40;3.70;;;10.80;99.90;;;;;;4944194;28;20207;-81
2023/05/15 01:47:04;;;;;;;3.55;2.17;;;10.60;99.90;;;;;;4945496;28;20189;-84
2023/05/15 01:49:31;;;;;;;4.70;3.22;;;10.60;99.90;;;;;;4951800;28;20195;-85
2023/05/15 01:52:03;;;;;;;6.47;3.75;;;10.70;99.90;;;;;;4948703;28;20325;-84
2023/05/15 01:54:30;;;;;;;4.07;2.60;;;10.80;99.90;;;;;;4935917;28;20915;-84
2023/05/15 01:56:57;;;;;;;4.55;2.80;;;10.90;99.90;;;;;;4947771;28;20295;-85
2023/05/15 01:59:24;;;;;;;6.43;2.40;;;11.00;99.90;;;;;;4944613;28;20195;-83
2023/05/15 02:01:51;;;;;;;5.97;2.65;;;11.00;99.90;;;;;;4953334;28;20294;-82
2023/05/15 02:04:17;;;;;;;3.95;2.85;;;11.00;99.90;;;;;;4933470;28;20319;-84
2023/05/15 02:06:43;;;;;;;3.72;2.15;;;11.00;99.90;;;;;;4937855;28;20188;-84
2023/05/15 02:09:09;;;;;;;4.90;2.50;;;11.00;99.90;;;;;;4926929;28;20197;-86
2023/05/15 02:11:36;;;;;;;3.70;2.00;;;10.90;99.90;;;;;;4930456;28;20527;-82
2023/05/15 02:14:03;;;;;;;4.75;3.10;;;10.80;99.90;;;;;;4940676;28;21834;-81
2023/05/15 02:16:28;;;;;;;6.85;2.63;;;10.80;99.90;;;;;;4944050;28;20253;-83
2023/05/15 02:18:54;;;;;;;3.90;2.60;;;10.80;99.90;;;;;;4943287;28;20244;-83
2023/05/15 02:21:19;;;;;;;3.87;2.60;;;10.80;99.90;;;;;;4944658;28;20668;-83
2023/05/15 02:23:45;;;;;;;4.83;2.70;;;10.80;99.90;;;;;;4947219;28;20218;-84
2023/05/15 02:26:40;;;;;;;3.90;2.47;;;10.90;99.90;;;;;;4937821;28;20192;-84
2023/05/15 02:29:19;;;;;;;3.30;2.28;;;10.90;99.90;;;;;;4952298;28;20190;-81
2023/05/15 02:31:55;;;;;;;4.40;2.35;;;11.00;99.90;;;;;;4944052;28;20183;-83
2023/05/15 02:34:41;;;;;;;4.60;2.90;;;11.10;99.90;;;;;;4949257;28;20203;-86
2023/05/15 02:37:12;;;;;;;4.82;2.20;;;11.20;99.90;;;;;;4954019;28;20206;-84
2023/05/15 02:39:39;;;;;;;6.30;2.90;;;11.30;99.90;;;;;;4935906;28;20181;-86
2023/05/15 02:42:06;;;;;;;3.92;2.33;;;11.30;99.90;;;;;;4954528;28;20212;-84
2023/05/15 02:44:34;;;;;;;2.97;2.55;;;11.50;99.90;;;;;;4951709;28;20258;-83
2023/05/15 02:47:00;;;;;;;4.03;1.85;;;11.50;99.90;;;;;;4928437;28;20200;-84
2023/05/15 02:49:25;;;;;;;3.00;2.47;;;11.60;99.90;;;;;;4952571;28;20216;-87
2023/05/15 02:51:51;;;;;;;4.13;2.80;;;;;;;;;;4953998;28;21253;-86
2023/05/15 02:54:17;;;;;;;4.60;2.70;;;11.70;99.90;;;;;;4945190;28;20211;-86
2023/05/15 02:56:43;;;;;;;3.77;2.03;;;11.70;99.90;;;;;;4949400;28;20782;-84
2023/05/15 02:59:09;;;;;;;2.20;2.00;;;;;;;;;;4944790;28;22779;-85
2023/05/15 03:01:34;;;;;;;3.97;1.80;;;11.60;99.90;;;;;;4947543;28;20196;-84
2023/05/15 03:04:00;;;;;;;5.43;2.37;;;11.60;99.90;;;;;;4947726;28;20561;-85
2023/05/15 03:06:25;;;;;;;2.00;1.80;;;11.60;99.90;;;;;;4932413;28;20556;-87
2023/05/15 03:08:51;;;;;;;11.03;2.77;;;11.60;99.90;;;;;;4950093;28;20289;-86
2023/05/15 03:11:18;;;;;;;3.97;2.53;;;11.50;99.90;;;;;;4936233;28;20770;-84
2023/05/15 03:13:43;;;;;;;4.07;2.30;;;11.50;99.90;;;;;;4951022;28;20271;-84
2023/05/15 03:16:09;;;;;;;4.70;2.33;;;11.50;99.90;;;;;;4933794;28;20609;-84
2023/05/15 03:18:35;;;;;;;3.17;2.30;;;11.40;99.90;;;;;;4946096;28;20331;-85
2023/05/15 03:21:01;;;;;;;4.87;3.27;;;;;;;;;;4948961;28;20215;-84
2023/05/15 03:23:27;;;;;;;3.27;1.90;;;;;;;;;;4953246;28;20204;-83
2023/05/15 03:25:53;;;;;;;3.10;2.80;;;11.30;99.90;;;;;;4950980;28;20450;-85
2023/05/15 03:28:18;;;;;;;2.90;2.13;;;;;;;;;;4943843;28;20548;-85
2023/05/15 03:30:44;;;;;;;3.93;2.67;;;;;;;;;;4951292;28;20188;-85
2023/05/15 03:33:10;;;;;;;6.17;3.20;;;11.00;99.90;;;;;;4949306;28;20460;-86
2023/05/15 03:35:35;;;;;;;6.33;3.70;;;11.00;99.90;;;;;;4952011;28;20525;-84
2023/05/15 03:38:01;;;;;;;8.40;4.10;;;;;;;;;;4951152;28;20828;-85
2023/05/15 03:40:27;;;;;;;11.07;5.20;;;11.00;99.90;;;;;;4953220;28;20182;-84
2023/05/15 03:42:52;;;;;;;4.70;3.43;;;11.10;99.90;;;;;;4956291;28;20530;-85
2023/05/15 03:45:19;;;;;;;5.93;3.63;;;11.10;99.90;;;;;;4952386;28;20275;-84
2023/05/15 03:47:44;;;;;;;5.93;3.85;;;11.20;99.90;;;;;;4959489;28;20195;-88
2023/05/15 03:50:10;;;;;;;6.03;4.77;;;11.10;99.90;;;;;;4946928;28;20185;-86
2023/05/15 03:52:35;;;;;;;8.03;3.93;;;11.10;99.90;;;;;;4947822;28;20401;-85
2023/05/15 03:55:01;;;;;;;8.87;4.67;;;11.20;99.90;;;;;;4936566;28;20807;-83
2023/05/15 03:57:27;;;;;;;7.70;4.53;;;;;;;;;;4954092;28;20195;-86
2023/05/15 03:59:53;;;;;;;5.72;4.38;;;;;;;;;;4953100;28;20786;-83
2023/05/15 04:02:18;;;;;;;8.20;4.37;;;11.20;99.90;;;;;;4944981;28;20306;-84
2023/05/15 04:04:44;;;;;;;5.50;4.00;;;11.30;99.90;;;;;;4953892;28;20557;-82
2023/05/15 04:07:09;;;;;;;5.80;4.00;;;11.20;99.90;;;;;;4941605;28;20188;-87
2023/05/15 04:09:35;;;;;;;10.40;5.73;;;11.30;99.90;;;;;;4932646;28;20184;-83
2023/05/15 04:12:01;;;;;;;5.50;4.03;;;11.20;99.90;;;;;;4940857;28;20188;-85
2023/05/15 04:14:27;;;;;;;6.80;4.80;;;11.20;99.90;;;;;;4940294;28;20216;-82
2023/05/15 04:16:52;;;;;;;7.53;5.10;;;11.30;99.90;;;;;;4925027;28;20300;-85
2023/05/15 04:19:18;;;;;;;10.37;5.40;;;11.30;99.90;;;;;;4949960;28;20567;-84
2023/05/15 04:21:43;;;;;;;9.83;5.17;;;11.40;99.90;;;;;;4947658;28;20208;-82
2023/05/15 04:24:09;;;;;;;5.83;4.20;;;11.40;99.90;;;;;;4946323;28;20259;-83
2023/05/15 04:26:35;;;;;;;7.10;5.30;;;11.50;99.90;;;;;;4940426;28;20626;-85
2023/05/15 04:29:02;;;;;;;4.55;3.90;;;11.60;99.90;;;;;;4940338;28;20184;-82
2023/05/15 04:31:28;;;;;;;7.18;4.53;;;;;;;;;;4946142;28;20187;-84
2023/05/15 04:33:53;;;;;;;6.77;4.60;;;11.70;99.90;;;;;;4935383;28;20208;-83
2023/05/15 04:36:19;;;;;;;7.67;5.80;;;11.80;99.90;;;;;;4955237;28;20435;-85
2023/05/15 04:38:45;;;;;;;8.95;5.30;;;11.80;99.90;;;;;;4940137;28;20184;-84
2023/05/15 04:41:10;;;;;;;10.00;5.57;;;11.80;99.90;;;;;;4938456;28;20223;-85
2023/05/15 04:43:36;;;;;;;8.80;6.50;;;;;;;;;;4940327;28;20203;-87
2023/05/15 04:46:02;;;;;;;7.07;5.07;;;12.10;99.90;;;;;;4940121;28;20664;-86
2023/05/15 04:48:28;;;;;;;6.50;4.43;;;;;;;;;;4938818;28;20451;-84
2023/05/15 04:50:53;;;;;;;15.57;6.50;;;13.40;99.90;;;;;;4940604;28;20199;-83
2023/05/15 04:53:19;;;;;;;11.40;6.20;;;14.20;99.90;;;;;;4944353;28;22418;-86
2023/05/15 04:55:44;;;;;;;7.23;4.60;;;14.10;99.90;;;;;;4937786;28;20180;-87
2023/05/15 04:58:10;;;;;;;6.90;4.90;;;;;;;;;;4952918;28;20191;-83
2023/05/15 05:00:36;;;;;;;6.73;4.77;;;14.30;99.90;;;;;;4934613;28;20188;-84
2023/05/15 05:03:02;;;;;;;5.23;4.03;;;;;;;;;;4940889;28;21842;-87
2023/05/15 05:05:28;;;;;;;8.43;5.80;;;;;;;;;;4951318;28;20231;-85
2023/05/15 05:07:53;;;;;;;7.77;5.43;;;16.40;99.90;;;;;;4952024;28;20455;-86
2023/05/15 05:10:20;;;;;;;7.50;6.23;;;17.50;99.90;;;;;;4968243;28;20438;-89
2023/05/15 05:12:46;;;;;;;6.80;5.33;;;;;;;;;;4952773;28;20215;-88
2023/05/15 05:15:12;;;;;;;5.70;4.60;;;;;;;;;;4957577;28;20456;-89
2023/05/15 05:17:37;;;;;;;7.40;5.23;;;;;;;;;;4963742;28;20447;-90
2023/05/15 05:20:03;;;;;;;8.57;5.30;;;20.30;99.90;;;;;;4963035;28;21507;-88
2023/05/15 05:22:29;;;;;;;7.00;4.40;;;18.90;99.90;;;;;;4956136;28;20481;-89
2023/05/15 05:24:55;;;;;;;8.50;6.10;;;;;;;;;;4948191;28;20464;-89
2023/05/15 05:27:21;;;;;;;7.93;4.67;;;20.10;99.90;;;;;;4945170;28;20712;-88
2023/05/15 05:29:59;;;;;;;6.47;4.63;;;19.30;99.90;;;;;;4950051;28;20512;-87
2023/05/15 05:33:26;;;;;;;8.00;4.83;;;19.60;99.90;;;;;;4943091;28;20200;-86
2023/05/15 05:36:27;;;;;;;6.50;4.47;;;20.10;99.90;;;;;;4886633;29;20540;-87
2023/05/15 05:38:53;;;;;;;5.60;4.70;;;;;;;;;;4877501;29;20514;-88
2023/05/15 05:45:07;;;;;;;4.90;3.70;;;19.30;99.90;;;;;;4911445;28;20998;-90
2023/05/15 05:51:32;;;;;;;5.93;4.03;;;18.80;99.90;;;;;;4949388;28;20900;-84
2023/05/15 05:54:20;;;;;;;8.70;4.00;;;18.50;99.90;;;;;;4944869;28;21425;-84
2023/05/15 05:56:48;;;;;;;5.80;3.60;;;;;;;;;;4930808;28;20439;-87
2023/05/15 05:59:22;;;;;;;5.23;4.33;;;19.40;99.90;;;;;;4927220;28;20510;-86
2023/05/15 06:02:05;;;;;;;6.30;3.80;;;20.10;99.90;;;;;;4935521;28;21027;-85
2023/05/15 06:04:43;;;;;;;4.27;3.50;;;19.40;99.90;;;;;;4947930;28;20962;-87
2023/05/15 06:07:42;;;;;;;4.17;3.20;;;18.50;99.90;;;;;;4949941;28;20446;-85
2023/05/15 06:13:27;;;;;;;5.00;3.23;;;;;;;;;;4909908;29;20620;-86
2023/05/15 06:16:29;;;;;;;7.60;3.57;;;19.20;99.90;;;;;;4929259;28;20550;-88
2023/05/15 06:19:14;;;;;;;4.07;3.67;;;19.40;99.90;;;;;;4948321;28;20444;-87
2023/05/15 06:21:53;;;;;;;3.67;3.13;;;;;;;;;;4952638;28;20471;-87
2023/05/15 06:24:25;;;;;;;6.33;4.10;;;17.60;99.90;;;;;;4948526;28;20493;-88
2023/05/15 06:27:16;;;;;;;9.40;4.03;;;16.80;99.90;;;;;;4934087;28;20477;-89
2023/05/15 06:29:59;;;;;;;5.43;3.43;;;16.30;99.90;;;;;;4948183;28;20464;-88
2023/05/15 06:32:40;;;;;;;5.00;3.67;;;15.90;99.90;;;;;;4948677;28;20438;-87
2023/05/15 06:35:12;;;;;;;6.93;4.20;;;15.50;99.90;;;;;;4936045;28;20455;-86
2023/05/15 06:37:38;;;;;;;5.17;3.80;;;;;;;;;;4948916;28;20443;-87
2023/05/15 06:40:08;;;;;;;6.90;3.83;;;15.20;99.90;;;;;;4950595;28;20480;-87
2023/05/15 06:42:57;;;;;;;5.80;4.40;;;15.40;99.90;;;;;;4951517;28;20459;-89
2023/05/15 06:46:21;;;;;;;;;;;;;;;;;;;;;
2023/05/15 06:56:02;;;;;;;6.50;3.60;;;19.30;99.90;;;;;;4939465;29;20502;-88
2023/05/15 07:02:50;;;;;;;;;;;;;;;;;;;;;
2023/05/15 07:05:48;;;;;;;3.27;2.67;;;18.40;99.90;;;;;;4930855;29;20477;-89
2023/05/15 07:11:46;;;;;;;4.80;3.63;;;19.50;99.90;;;;;;4921727;29;20865;-88
2023/05/15 07:14:48;;;;;;;5.83;3.90;;;20.90;99.90;;;;;;4926108;29;20471;-87
2023/05/15 07:17:25;;;;;;;4.63;3.60;;;22.60;99.90;;;;;;4911769;29;20447;-88
2023/05/15 07:20:35;;;;;;;5.57;3.30;;;22.40;99.90;;;;;;4921016;29;21309;-87
2023/05/15 07:23:08;;;;;;;5.13;3.50;;;23.10;99.90;;;;;;4926334;29;20523;-87
2023/05/15 07:25:47;;;;;;;5.30;3.83;;;22.80;99.90;;;;;;4908312;29;20541;-89
2023/05/15 07:28:13;;;;;;;4.23;3.80;;;;;;;;;;4938137;28;20435;-87
2023/05/15 07:30:39;;;;;;;5.00;3.40;;;;;;;;;;4957476;28;20546;-87
2023/05/15 07:33:04;;;;;;;5.13;3.33;;;;;;;;;;4959913;28;20436;-87
2023/05/15 07:35:41;;;;;;;4.13;3.43;;;22.80;99.90;;;;;;4957320;28;20895;-89
2023/05/15 07:38:18;;;;;;;5.30;3.40;;;21.80;99.90;;;;;;4925953;28;20437;-90
2023/05/15 07:41:02;;;;;;;4.27;3.27;;;21.70;99.90;;;;;;4938061;28;20431;-87
2023/05/15 07:43:46;;;;;;;4.70;3.40;;;20.20;99.90;;;;;;4941501;28;20523;-84
2023/05/15 07:46:37;;;;;;;4.60;3.40;;;19.50;99.90;;;;;;4947042;28;20550;-83
2023/05/15 07:49:09;;;;;;;5.67;3.47;;;;;;;;;;4928267;28;20435;-83
2023/05/15 07:52:10;;;;;;;4.60;3.43;;;20.40;99.90;;;;;;4960341;28;20924;-88
2023/05/15 07:54:45;;;;;;;3.03;2.43;;;;;;;;;;4966683;28;20742;-83
2023/05/15 07:57:33;;;;;;;;;;;;;;;;;;;;;
2023/05/15 08:03:23;;;;;;;3.60;3.00;;;21.50;99.90;;;;;;4955899;28;20981;-85
2023/05/15 08:06:15;;;;;;;6.27;3.13;;;21.20;99.90;;;;;;4931994;28;20447;-86
2023/05/15 08:12:21;;;;;;;9.70;3.57;;;19.60;99.90;;;;;;4926391;28;20479;-89
2023/05/15 08:14:57;;;;;;;3.63;3.27;;;19.60;99.90;;;;;;4922743;28;20468;-83
2023/05/15 08:17:29;;;;;;;4.17;2.70;;;19.80;99.90;;;;;;4949084;28;20453;-85
2023/05/15 08:19:55;;;;;;;4.03;2.93;;;;;;;;;;4943352;28;20967;-83
2023/05/15 08:22:21;;;;;;;4.80;3.70;;;;;;;;;;4948266;28;20466;-85
2023/05/15 08:24:47;;;;;;;4.50;2.90;;;;;;;;;;4951256;28;20460;-84
2023/05/15 08:31:40;;;;;;;3.90;2.87;;;23.50;99.90;;;;;;4940920;28;20442;-87
2023/05/15 08:35:09;;;;;;;3.20;2.90;;;23.60;99.90;;;;;;4890217;28;20655;-87
2023/05/15 08:46:02;;;;;;;;;;;;;;;;;;;;;
2023/05/15 08:48:46;;;;;;;4.73;3.43;;;20.80;99.90;;;;;;4842725;29;20441;-89
2023/05/15 08:51:47;;;;;;;5.10;4.00;;;20.20;99.90;;;;;;4811076;29;20453;-85
2023/05/15 08:58:08;;;;;;;3.73;2.90;;;21.30;99.90;;;;;;4949561;28;20427;-87
2023/05/15 09:01:01;;;;;;;4.80;3.53;;;20.80;99.90;;;;;;4934700;28;20444;-84
2023/05/15 09:03:43;;;;;;;4.50;3.30;;;20.20;99.90;;;;;;4913636;28;20496;-88
2023/05/15 09:06:46;;;;;;;5.20;3.43;;;19.60;99.90;;;;;;4938376;28;20457;-85
2023/05/15 09:09:15;;;;;;;4.17;2.97;;;;;;;;;;4940312;28;20427;-84
2023/05/15 09:12:28;;;;;;;5.40;3.40;;;19.00;99.90;;;;;;4952864;28;20440;-85
2023/05/15 09:15:23;;;;;;;4.03;2.80;;;19.40;99.90;;;;;;4931239;28;20501;-84
2023/05/15 09:18:05;;;;;;;6.23;3.47;;;20.00;99.90;;;;;;4950337;28;20506;-84
2023/05/15 09:20:55;;;;;;;6.80;3.10;;;19.80;99.90;;;;;;4930620;28;20440;-85
2023/05/15 09:23:42;;;;;;;3.80;3.20;;;20.70;99.90;;;;;;4952792;28;20467;-87
2023/05/15 09:26:26;;;;;;;5.53;3.40;;;21.30;99.90;;;;;;4950430;28;20465;-87
2023/05/15 09:29:26;;;;;;;4.40;3.77;;;21.90;99.90;;;;;;4957784;28;20450;-85
2023/05/15 09:32:23;;;;;;;3.70;3.07;;;21.90;99.90;;;;;;4907393;28;20443;-88
2023/05/15 09:35:40;;;;;;;3.80;3.13;;;23.00;99.90;;;;;;4876052;29;20530;-90
2023/05/15 09:38:48;;;;;;;;;;;;;;;;;;;;;
2023/05/15 09:41:30;;;;;;;4.23;3.83;;;21.90;99.90;;;;;;4884873;29;20479;-85
2023/05/15 09:44:00;;;;;;;10.83;3.67;;;21.50;99.90;;;;;;4881224;29;21224;-87
2023/05/15 09:46:32;;;;;;;4.17;3.50;;;;;;;;;;4924889;28;20444;-83
2023/05/15 09:52:34;;;;;;;2.63;2.30;;;21.30;99.90;;;;;;4946885;28;20920;-86
2023/05/15 09:55:18;;;;;;;4.07;3.03;;;21.80;99.90;;;;;;4922630;28;20460;-89
2023/05/15 09:58:07;;;;;;;3.37;3.03;;;22.40;99.90;;;;;;4930812;28;20469;-87
2023/05/15 10:04:25;;;;;;;4.00;3.00;;;22.00;99.90;;;;;;4864035;29;20553;-86
2023/05/15 10:07:06;;;;;;;4.17;3.20;;;22.40;99.90;;;;;;4906105;29;20440;-87
2023/05/15 10:09:52;;;;;;;4.43;3.60;;;22.00;99.90;;;;;;4916550;29;20484;-87
2023/05/15 10:12:30;;;;;;;3.40;3.10;;;21.90;99.90;;;;;;4910273;29;20908;-86
2023/05/15 10:14:59;;;;;;;3.30;3.00;;;22.30;99.90;;;;;;4909409;29;20465;-87
2023/05/15 10:17:47;;;;;;;5.10;3.10;;;21.70;99.90;;;;;;4892303;29;20597;-88
2023/05/15 10:20:23;;;;;;;3.47;2.87;;;;;;;;;;4891861;28;20448;-84
2023/05/15 10:23:00;;;;;;;3.57;2.27;;;21.70;99.90;;;;;;4951877;28;20465;-88
2023/05/15 10:25:44;;;;;;;2.63;2.43;;;21.60;99.90;;;;;;4945667;28;20431;-83
2023/05/15 10:28:38;;;;;;;3.30;2.47;;;21.90;99.90;;;;;;4936686;28;20521;-85
2023/05/15 10:31:28;;;;;;;5.00;2.70;;;20.60;99.90;;;;;;4917116;29;20476;-90
2023/05/15 10:33:57;;;;;;;4.50;3.37;;;;;;;;;;4929280;29;20489;-89
2023/05/15 10:36:33;;;;;;;4.90;3.63;;;20.40;99.90;;;;;;4952553;28;20480;-91
2023/05/15 10:39:01;;;;;;;3.90;2.10;;;20.70;99.90;;;;;;4960255;28;20454;-87
2023/05/15 10:41:35;;;;;;;4.00;3.07;;;20.00;99.90;;;;;;4928600;28;20459;-83
2023/05/15 10:44:02;;;;;;;3.77;3.13;;;;;;;;;;4922998;28;20462;-86
2023/05/15 10:46:31;;;;;;;2.63;2.43;;;20.10;99.90;;;;;;4951883;28;20420;-84
2023/05/15 10:48:57;;;;;;;4.43;3.10;;;;;;;;;;4932806;28;20427;-84
2023/05/15 10:51:27;;;;;;;3.57;2.97;;;19.90;99.90;;;;;;4948505;28;20431;-88
2023/05/15 10:55:10;;;;;;;;;;;;;;;;;;;;;
2023/05/15 11:02:34;;;;;;;;;;;;;;;;;;;;;
2023/05/15 11:05:35;;;;;;;4.07;3.30;;;19.90;99.90;;;;;;4880948;29;20478;-86
2023/05/15 11:12:41;;;;;;;3.40;3.07;;;20.30;99.90;;;;;;4878809;29;20964;-87
2023/05/15 11:19:54;;;;;;;5.93;3.00;;;20.70;99.90;;;;;;4785492;29;20455;-89
2023/05/15 11:22:54;;;;;;;6.97;3.10;;;21.00;99.90;;;;;;4792164;29;21324;-88
2023/05/15 11:26:02;;;;;;;4.87;3.70;;;21.20;99.90;;;;;;4956694;23;20543;-85
2023/05/15 11:28:58;;;;;;;;;;;;;;;;;;;;;
2023/05/15 11:35:02;;;;;;;5.10;3.37;;;21.60;98.30;;;;;;4954060;28;20458;-85
2023/05/15 11:38:13;;;;;;;4.23;2.33;;;20.90;98.90;;;;;;4955218;28;20428;-84
2023/05/15 11:41:32;;;;;;;5.87;3.33;;;20.80;99.90;;;;;;4956030;28;20433;-84
2023/05/15 11:44:16;;;;;;;3.20;2.90;;;;;;;;;;4955893;28;20790;-84
2023/05/15 11:47:19;;;;;;;3.90;3.20;;;20.70;95.60;;;;;;4955389;28;21002;-84
2023/05/15 11:49:45;;;;;;;8.60;3.70;;;;;;;;;;4937848;28;20494;-83
2023/05/15 11:52:15;;;;;;;5.10;2.93;;;21.80;99.90;;;;;;4957348;28;20467;-83
2023/05/15 11:55:07;;;;;;;;;;;;;;;;;;;;;
2023/05/15 11:58:14;;;;;;;3.77;3.23;;;21.20;96.60;;;;;;4974502;28;20441;-85
2023/05/15 12:01:08;;;;;;;3.93;3.30;;;21.00;96.40;;;;;;4961682;28;20603;-85
2023/05/15 12:03:48;;;;;;;3.30;2.63;;;21.40;94.50;;;;;;4957644;28;20474;-84
2023/05/15 12:06:53;;;;;;;4.00;3.33;;;21.70;95.10;;;;;;4940341;29;20428;-84
2023/05/15 12:09:26;;;;;;;3.17;2.87;;;21.80;93.90;;;;;;4961775;28;20486;-84
2023/05/15 12:12:02;;;;;;;5.03;4.23;;;22.00;96.20;;;;;;4945264;28;20501;-85
2023/05/15 12:14:30;;;;;;;4.63;2.80;;;22.10;94.30;;;;;;4943300;28;20544;-84
2023/05/15 12:17:11;;;;;;;4.73;3.40;;;21.80;93.30;;;;;;4957381;28;20780;-83
2023/05/15 12:19:46;;;;;;;3.93;3.63;;;21.80;92.80;;;;;;4955376;28;20430;-83
2023/05/15 12:22:22;;;;;;;;;;;;;;;;;;;;;
2023/05/15 12:24:48;;;;;;;4.07;3.17;;;;;;;;;;4953752;28;20468;-85
2023/05/15 12:27:25;;;;;;;3.70;3.10;;;21.50;91.50;;;;;;4938043;28;20486;-83
2023/05/15 12:29:53;;;;;;;3.73;3.33;;;;;;;;;;4947330;28;20443;-85
2023/05/15 12:32:20;;;;;;;5.93;2.97;;;;;;;;;;4944045;28;20851;-84
2023/05/15 12:34:49;;;;;;;5.07;4.57;;;;;;;;;;4938158;28;20466;-83
2023/05/15 12:37:27;;;;;;;2.87;2.63;;;22.20;95.10;;;;;;4953946;28;20443;-83
2023/05/15 12:40:15;;;;;;;3.87;3.30;;;23.10;94.20;;;;;;4936300;28;20452;-83
2023/05/15 12:42:43;;;;;;;3.27;2.97;;;23.70;92.70;;;;;;4959405;28;20983;-83
2023/05/15 12:45:25;;;;;;;3.97;2.90;;;23.10;93.20;;;;;;4960132;28;20623;-84
2023/05/15 12:47:52;;;;;;;4.50;2.93;;;;;;;;;;4961099;28;20517;-85
2023/05/15 12:50:24;;;;;;;5.20;3.93;;;21.90;92.90;;;;;;4961136;28;20439;-85
2023/05/15 12:52:57;;;;;;;3.60;3.30;;;21.70;93.20;;;;;;4943558;28;20439;-83
2023/05/15 12:55:51;;;;;;;5.63;2.70;;;21.60;94.40;;;;;;4945417;28;20461;-83
2023/05/15 12:58:20;;;;;;;3.83;3.10;;;;;;;;;;4955368;28;20446;-84
2023/05/15 13:00:50;;;;;;;3.13;2.83;;;21.60;93.40;;;;;;4949926;28;20454;-84
2023/05/15 13:03:20;;;;;;;4.43;2.77;;;21.80;92.00;;;;;;4957415;28;20486;-84
2023/05/15 13:05:46;;;;;;;3.03;2.80;;;;;;;;;;4950160;28;20443;-83
2023/05/15 13:08:18;;;;;;;7.53;2.40;;;23.10;90.00;;;;;;4946246;28;20432;-83
2023/05/15 13:10:45;;;;;;;2.80;2.60;;;23.20;89.20;;;;;;4939587;28;20430;-83
2023/05/15 13:13:11;;;;;;;2.50;2.30;;;;;;;;;;4957852;28;20445;-81
2023/05/15 13:15:38;;;;;;;3.50;2.70;;;23.50;81.40;;;;;;4963195;28;20526;-84
2023/05/15 13:18:09;;;;;;;6.70;2.67;;;23.80;80.70;;;;;;4953195;28;20440;-82
2023/05/15 13:20:40;;;;;;;4.60;3.10;;;23.50;86.20;;;;;;4953721;28;20436;-83
2023/05/15 13:23:07;;;;;;;2.90;2.67;;;23.50;88.20;;;;;;4947209;28;21012;-84
2023/05/15 13:25:33;;;;;;;2.73;2.50;;;23.40;93.30;;;;;;4954285;28;20471;-84
2023/05/15 13:28:01;;;;;;;3.17;2.53;;;23.40;87.80;;;;;;4953584;28;20942;-83
2023/05/15 13:30:30;;;;;;;6.40;2.77;;;23.10;84.10;;;;;;4957245;28;20919;-83
2023/05/15 13:32:56;;;;;;;6.13;3.97;;;21.50;94.40;;;;;;4955783;28;20462;-84
2023/05/15 13:35:22;;;;;;;3.70;3.40;;;21.50;95.00;;;;;;4958326;28;20443;-82
2023/05/15 13:37:47;;;;;;;4.73;3.60;;;20.50;94.70;;;;;;4957948;28;20592;-83
2023/05/15 13:40:13;;;;;;;5.37;4.13;;;20.40;97.20;;;;;;4960832;28;20442;-82
2023/05/15 13:42:39;;;;;;;3.57;3.27;;;20.50;97.30;;;;;;4964045;28;20207;-83
2023/05/15 13:45:08;;;;;;;2.93;2.67;;;20.40;97.80;;;;;;4956005;28;20208;-82
2023/05/15 13:47:34;;;;;;;5.50;3.70;;;20.20;96.90;;;;;;4956216;28;20462;-83
2023/05/15 13:50:01;;;;;;;4.30;3.60;;;20.00;97.10;;;;;;4960145;28;20440;-82
2023/05/15 13:52:26;;;;;;;6.00;4.50;;;20.10;97.30;;;;;;4964149;28;20202;-84
2023/05/15 13:54:54;;;;;;;8.40;3.70;;;20.00;96.40;;;;;;4939265;28;20830;-83
2023/05/15 13:57:20;;;;;;;5.50;4.20;;;20.10;96.80;;;;;;4934322;28;20254;-84
2023/05/15 13:59:45;;;;;;;7.83;5.27;;;19.70;99.10;;;;;;4930395;28;20448;-84
2023/05/15 14:02:11;;;;;;;8.70;6.20;;;18.70;99.90;;;;;;4955439;28;20880;-84
2023/05/15 14:04:37;;;;;;;7.97;5.37;;;17.00;99.90;;;;;;4953223;28;20202;-84
2023/05/15 14:07:02;;;;;;;6.50;5.30;;;15.80;99.90;;;;;;4947962;28;20762;-85
2023/05/15 14:09:28;;;;;;;8.60;4.53;;;14.80;99.90;;;;;;4945057;28;20322;-84
2023/05/15 14:11:53;;;;;;;7.80;5.30;;;14.60;99.90;;;;;;4941474;28;20239;-84
2023/05/15 14:14:19;;;;;;;7.50;5.80;;;14.70;99.90;;;;;;4945946;28;20727;-84
2023/05/15 14:16:44;;;;;;;11.00;5.70;;;14.70;99.90;;;;;;4923377;28;20183;-84
2023/05/15 14:19:10;;;;;;;10.47;6.63;;;14.90;99.90;;;;;;4955027;28;20953;-83
2023/05/15 14:21:37;;;;;;;6.50;5.00;;;15.10;99.90;;;;;;4941211;28;20650;-84
2023/05/15 14:24:03;;;;;;;10.53;6.50;;;15.20;99.90;;;;;;4945116;28;20204;-83
2023/05/15 14:26:29;;;;;;;9.23;6.60;;;15.20;99.90;;;;;;4955066;28;20960;-83
2023/05/15 14:28:55;;;;;;;8.50;6.27;;;15.20;99.90;;;;;;4954182;28;20475;-83
2023/05/15 14:31:21;;;;;;;8.73;6.63;;;15.20;99.90;;;;;;4949746;28;20489;-84
2023/05/15 14:33:47;;;;;;;6.63;5.47;;;15.20;99.90;;;;;;4953927;28;20208;-83
2023/05/15 14:36:13;;;;;;;9.50;6.80;;;15.30;99.90;;;;;;4955170;28;20202;-83
2023/05/15 14:38:39;;;;;;;8.70;6.10;;;15.30;99.90;;;;;;4952477;28;20447;-82
2023/05/15 14:41:05;;;;;;;10.60;6.73;;;15.30;99.90;;;;;;4953143;28;20445;-84
2023/05/15 14:43:30;;;;;;;9.07;6.70;;;15.30;99.90;;;;;;4948322;28;20842;-83
2023/05/15 14:45:56;;;;;;;7.27;5.63;;;15.30;99.90;;;;;;4947519;28;20200;-82
2023/05/15 14:48:21;;;;;;;8.40;6.00;;;15.30;99.90;;;;;;4934495;28;20180;-84
2023/05/15 14:50:47;;;;;;;9.90;7.00;;;15.20;99.90;;;;;;4946854;28;20853;-84
2023/05/15 14:53:12;;;;;;;7.80;6.50;;;15.10;99.90;;;;;;4952254;28;22991;-84
2023/05/15 14:55:38;;;;;;;9.97;6.40;;;15.10;99.90;;;;;;4934213;28;20283;-84
2023/05/15 14:58:03;;;;;;;10.20;7.00;;;15.20;99.90;;;;;;4949606;28;20196;-83
2023/05/15 15:00:29;;;;;;;11.23;6.60;;;15.20;99.90;;;;;;4948144;28;20260;-84
2023/05/15 15:02:55;;;;;;;11.37;7.03;;;15.10;99.90;;;;;;4955492;28;20208;-82